Time,TemperatureF,DewpointF,PressureIn,WindDirection,WindDirectionDegrees,WindSpeedMPH,WindSpeedGustMPH,Humidity,HourlyPrecipIn,Conditions,Clouds,dailyrainin,SoftwareType,DateUTC
2013-03-29 00:00:00,35.8,22.0,30.22,NW,315,0.0,4.0,57,0.00,,,-99.99,WeatherLink 5.6,2013-03-29 04:00:00,
2013-03-29 00:30:00,35.3,22.0,30.22,North,-999,0.0,0.0,58,0.00,,,-99.99,WeatherLink 5.6,2013-03-29 04:30:00,
2013-03-29 01:00:00,35.3,22.0,30.22,NW,315,1.0,6.0,58,0.00,,,-99.99,WeatherLink 5.6,2013-03-29 05:00:00,
2013-03-29 01:30:00,34.9,22.4,30.21,NW,315,1.0,5.0,60,0.00,,,-99.99,WeatherLink 5.6,2013-03-29 05:30:00,
2013-03-29 02:00:00,34.4,21.9,30.21,NW,315,2.0,7.0,60,0.00,,,-99.99,WeatherLink 5.6,2013-03-29 06:00:00,
2013-03-29 02:30:00,34.4,21.9,30.21,WNW,292,2.0,9.0,60,0.00,,,-99.99,WeatherLink 5.6,2013-03-29 06:30:00,
2013-03-29 03:00:00,34.2,22.1,30.21,WNW,292,0.0,4.0,61,0.00,,,-99.99,WeatherLink 5.6,2013-03-29 07:00:00,
2013-03-29 03:30:00,33.5,21.9,30.20,WNW,292,1.0,6.0,62,0.00,,,-99.99,WeatherLink 5.6,2013-03-29 07:30:00,
2013-03-29 04:00:00,32.9,22.0,30.20,NW,315,0.0,4.0,64,0.00,,,-99.99,WeatherLink 5.6,2013-03-29 08:00:00,
2013-03-29 04:30:00,34.2,22.1,30.18,WNW,292,0.0,2.0,61,0.00,,,-99.99,WeatherLink 5.6,2013-03-29 08:30:00,
2013-03-29 05:00:00,34.1,22.4,30.18,North,-999,0.0,0.0,62,0.00,,,-99.99,WeatherLink 5.6,2013-03-29 09:00:00,
2013-03-29 05:30:00,34.4,22.7,30.18,WNW,292,0.0,2.0,62,0.00,,,-99.99,WeatherLink 5.6,2013-03-29 09:30:00,
2013-03-29 06:00:00,34.4,22.7,30.18,North,-999,0.0,0.0,62,0.00,,,-99.99,WeatherLink 5.6,2013-03-29 10:00:00,
2013-03-29 06:20:00,34.4,22.7,30.18,North,-999,0.0,0.0,62,0.00,,,-99.99,WeatherLink 5.6,2013-03-29 10:20:00,
2013-03-29 06:40:00,34.4,23.1,30.19,North,-999,0.0,0.0,63,0.00,,,-99.99,WeatherLink 5.6,2013-03-29 10:40:00,
2013-03-29 07:10:00,33.4,22.5,30.20,North,-999,0.0,0.0,64,0.00,,,-99.99,WeatherLink 5.6,2013-03-29 11:10:00,
2013-03-29 07:40:00,33.5,22.6,30.20,North,-999,0.0,0.0,64,0.00,,,-99.99,WeatherLink 5.6,2013-03-29 11:40:00,
2013-03-29 08:10:00,33.8,22.9,30.20,North,-999,0.0,0.0,64,0.00,,,-99.99,WeatherLink 5.6,2013-03-29 12:10:00,
2013-03-29 08:40:00,35.7,25.4,30.20,South,180,0.0,1.0,66,0.00,,,-99.99,WeatherLink 5.6,2013-03-29 12:40:00,
2013-03-29 09:10:00,36.5,25.1,30.20,South,180,1.0,10.0,63,0.00,,,-99.99,WeatherLink 5.6,2013-03-29 13:10:00,
2013-03-29 09:40:00,38.3,26.8,30.21,South,180,1.0,7.0,63,0.00,,,-99.99,WeatherLink 5.6,2013-03-29 13:40:00,
2013-03-29 10:10:00,39.3,27.4,30.19,SE,135,1.0,7.0,62,0.00,,,-99.99,WeatherLink 5.6,2013-03-29 14:10:00,
2013-03-29 10:40:00,40.4,28.0,30.20,South,180,3.0,11.0,61,0.00,,,-99.99,WeatherLink 5.6,2013-03-29 14:40:00,
2013-03-29 11:10:00,40.5,26.9,30.20,South,180,3.0,12.0,58,0.00,,,-99.99,WeatherLink 5.6,2013-03-29 15:10:00,
2013-03-29 11:40:00,41.1,27.9,30.21,South,180,4.0,12.0,59,0.00,,,-99.99,WeatherLink 5.6,2013-03-29 15:40:00,
2013-03-29 12:10:00,42.1,27.5,30.20,South,180,2.0,10.0,56,0.00,,,-99.99,WeatherLink 5.6,2013-03-29 16:10:00,
2013-03-29 12:40:00,43.8,27.3,30.18,South,180,2.0,11.0,52,0.00,,,-99.99,WeatherLink 5.6,2013-03-29 16:40:00,
2013-03-29 13:10:00,44.8,24.7,30.17,West,270,4.0,13.0,45,0.00,,,-99.99,WeatherLink 5.6,2013-03-29 17:10:00,
2013-03-29 13:40:00,44.9,23.2,30.17,NW,315,7.0,19.0,42,0.00,,,-99.99,WeatherLink 5.6,2013-03-29 17:40:00,
2013-03-29 14:10:00,46.1,24.3,30.15,NW,315,4.0,13.0,42,0.00,,,-99.99,WeatherLink 5.6,2013-03-29 18:10:00,
2013-03-29 14:40:00,47.3,24.2,30.14,WNW,292,6.0,18.0,40,0.00,,,-99.99,WeatherLink 5.6,2013-03-29 18:40:00,
2013-03-29 15:10:00,47.5,22.5,30.13,WNW,292,7.0,18.0,37,0.00,,,-99.99,WeatherLink 5.6,2013-03-29 19:10:00,
2013-03-29 15:41:00,48.6,27.1,30.11,West,270,7.0,15.0,43,0.00,,,-99.99,WeatherLink 5.6,2013-03-29 19:41:00,
2013-03-29 16:10:00,48.2,26.2,30.09,SSW,202,4.0,16.0,42,0.00,,,-99.99,WeatherLink 5.6,2013-03-29 20:10:00,
2013-03-29 16:40:00,49.6,28.0,30.08,SSW,202,4.0,17.0,43,0.00,,,-99.99,WeatherLink 5.6,2013-03-29 20:40:00,
2013-03-29 17:10:00,48.4,26.9,30.09,SW,225,4.0,14.0,43,0.00,,,-99.99,WeatherLink 5.6,2013-03-29 21:10:00,
2013-03-29 17:40:00,46.7,28.5,30.09,SSW,202,4.0,14.0,49,0.00,,,-99.99,WeatherLink 5.6,2013-03-29 21:40:00,
2013-03-29 18:10:00,46.3,27.7,30.09,WSW,247,5.0,17.0,48,0.00,,,-99.99,WeatherLink 5.6,2013-03-29 22:10:00,
2013-03-29 18:40:00,44.8,28.2,30.10,SW,225,7.0,15.0,52,0.00,,,-99.99,WeatherLink 5.6,2013-03-29 22:40:00,
2013-03-29 19:10:00,42.8,29.5,30.10,South,180,5.0,16.0,59,0.00,,,-99.99,WeatherLink 5.6,2013-03-29 23:10:00,
2013-03-29 19:40:00,40.8,32.1,30.11,South,180,5.0,15.0,71,0.00,,,-99.99,WeatherLink 5.6,2013-03-29 23:40:00,
2013-03-29 20:10:00,39.7,33.1,30.12,South,180,4.0,11.0,77,0.00,,,-99.99,WeatherLink 5.6,2013-03-30 00:10:00,
2013-03-29 20:40:00,38.7,33.4,30.12,South,180,4.0,10.0,81,0.00,,,-99.99,WeatherLink 5.6,2013-03-30 00:40:00,
2013-03-29 21:10:00,37.9,33.2,30.13,South,180,6.0,12.0,83,0.00,,,-99.99,WeatherLink 5.6,2013-03-30 01:10:00,
2013-03-29 22:30:00,37.2,33.1,30.13,South,180,5.0,12.0,85,0.00,,,-99.99,WeatherLink 5.6,2013-03-30 02:30:00,
2013-03-29 23:00:00,36.6,33.1,30.14,South,180,4.0,12.0,87,0.00,,,-99.99,WeatherLink 5.6,2013-03-30 03:00:00,
2013-03-29 23:30:00,35.9,33.0,30.14,South,180,4.0,10.0,89,0.00,,,-99.99,WeatherLink 5.6,2013-03-30 03:30:00,